• Join FlightAware (Why Join?)
  • Login
  • US Flag 
02:56AM EDT


 

Airport Tracker/Info


-or-


 

Live Flight TrackerFlight Track Log ✈ AWE131 ✈ 11-Apr-2013 ✈ KPHX - KLGB

Flight Track Log - Related Links

Times and Time Zones

All times are in EDT time to prevent confusion due to time zone crossing. See the AWE131 flight status page for this flight to view local times or setup timezone preferences in your user account.

Time Position Orientation Groundspeed Altitude Reporting Facility
EDT Latitude Longitude Course Direction KTS MPH feet Rate Location/Type
11:29PM 33.4333 -111.9833 273° West 168 193 2,000  Level Phoenix TRACON
11:30PM 33.4333 -111.9000 90° East 229 264 4,400 2,340 Climbing Phoenix TRACON
11:31PM 33.4167 -111.8167 103° East 271 312 7,400 2,700 Climbing Phoenix TRACON
11:32PM 33.4333 -112.3341 270° West  Level FlightAware Approximate
11:32PM 33.4128 -111.8081 118° Southeast 268 308 7,800  Level Albuquerque Center
11:33PM 33.4359 -112.4454 273° West  Level FlightAware Approximate
11:33PM 33.3681 -111.7386 128° Southeast 286 329 10,600  Level Albuquerque Center
11:34PM 33.4404 -112.5566 273° West  Level FlightAware Approximate
11:34PM 33.3111 -111.7925 218° Southwest 297 342 12,700  Level Albuquerque Center
11:35PM 33.4448 -112.6662 273° West  Level FlightAware Approximate
11:35PM 33.3267 -111.9086 279° West 353 406 14,700  Level Albuquerque Center
11:36PM 33.3444 -112.0283 280° West 363 418 17,400 3,000 Climbing Albuquerque Center
11:37PM 33.3644 -112.1750 279° West 372 428 20,900 2,820 Climbing Albuquerque Center
11:38PM 33.3817 -112.2978 280° West 373 429 23,200 1,920 Climbing Albuquerque Center
11:39PM 33.3986 -112.4203 279° West 374 430 24,900 1,620 Climbing Albuquerque Center
11:40PM 33.4161 -112.5467 279° West 383 441 26,600 1,680 Climbing Albuquerque Center
11:41PM 33.4317 -112.6628 279° West 386 444 28,400 1,620 Climbing Albuquerque Center
11:42PM 33.4519 -112.8122 279° West 382 440 30,000 780 Climbing Albuquerque Center
11:43PM 33.4753 -112.9383 283° West 386 444 30,000  Level Albuquerque Center
11:44PM 33.5000 -113.0650 283° West 389 448 30,000  Level Albuquerque Center
11:45PM 33.5247 -113.1925 283° West 393 452 30,000  Level Albuquerque Center
11:46PM 33.5483 -113.3200 283° West 394 453 30,000  Level Albuquerque Center
11:47PM 33.5725 -113.4481 283° West 395 455 30,000  Level Albuquerque Center
11:48PM 33.5967 -113.5753 283° West 395 455 30,000  Level Albuquerque Center
11:49PM 33.6244 -113.7200 283° West 395 455 30,100  Climbing Albuquerque Center
11:50PM 33.6478 -113.8472 282° West 394 453 30,000 -60 Descending Albuquerque Center
11:51PM 33.6711 -113.9761 282° West 394 453 30,000  Level Albuquerque Center
11:52PM 33.6947 -114.1042 283° West 394 453 30,000  Level Albuquerque Center
11:53PM 33.7189 -114.2414 282° West 396 456 30,000  Level Albuquerque Center
11:54PM 33.7414 -114.3714 282° West 397 457 30,000  Level Albuquerque Center
11:55PM 33.7514 -114.4092 288° West 397 457 30,000  Level Los Angeles Center
11:56PM 33.7764 -114.5650 281° West 398 458 30,000  Level Los Angeles Center
11:57PM 33.7828 -114.6694 274° West 395 455 30,000  Level Los Angeles Center
11:58PM 33.7900 -114.8283 273° West 397 457 30,000  Level Los Angeles Center
11:59PM 33.7992 -114.9872 274° West 399 459 30,000  Level Los Angeles Center
12:00AM 33.8078 -115.1200 274° West 399 459 30,000  Level Los Angeles Center
12:01AM 33.8142 -115.2517 273° West 398 458 30,000  Level Los Angeles Center
12:02AM 33.8208 -115.3842 274° West 399 459 30,000  Level Los Angeles Center
12:03AM 33.8275 -115.5167 274° West 399 459 30,000  Level Los Angeles Center
12:04AM 33.8339 -115.6483 273° West 396 456 30,000  Level Los Angeles Center
12:05AM 33.8408 -115.7803 274° West 397 457 30,000 -180 Level Los Angeles Center
12:06AM 33.8486 -115.9408 273° West 402 463 29,700 -720 Descending Los Angeles Center
12:07AM 33.8550 -116.0753 273° West 404 465 28,600 -1,800 Descending Los Angeles Center
12:08AM 33.8606 -116.2075 273° West 399 459 26,100 -2,400 Descending Los Angeles Center
12:09AM 33.8661 -116.3372 273° West 392 451 23,700 -2,280 Descending Los Angeles Center
12:10AM 33.8719 -116.4656 273° West 389 448 21,400 -2,520 Descending Los Angeles Center
12:11AM 33.8781 -116.5931 273° West 385 443 18,600 -2,760 Descending Los Angeles Center
12:12AM 33.8853 -116.7447 273° West 383 441 15,800 -2,460 Descending Los Angeles Center
12:13AM 33.8881 -116.8700 272° West 378 435 13,600 -1,800 Descending Los Angeles Center
12:14AM 33.8706 -116.9778 259° West 344 396 12,200 -1,440 Descending Los Angeles Center
12:15AM 33.8558 -117.0817 260° West 324 373 10,700 -1,320 Descending Los Angeles Center
12:16AM 33.8406 -117.1803 259° West 309 356 9,500 -900 Descending Los Angeles Center
12:17AM 33.8261 -117.2792 260° West 303 349 8,900 -540 Descending Los Angeles Center
12:18AM 33.8117 -117.3786 260° West 303 349 8,500 -480 Descending Los Angeles Center
12:19AM 33.7947 -117.4958 260° West 299 344 8,000 -600 Descending Los Angeles Center
12:20AM 33.7814 -117.5864 260° West 283 326 7,300 -780 Descending Los Angeles Center
12:21AM 33.7617 -117.6725 255° West 270 311 6,400 -1,260 Descending Los Angeles Center
12:22AM 33.7500 -117.7333 257° West 255 293 5,100 -1,320 Descending Southern California TRACON
12:23AM 33.7167 -117.8333 248° West 246 283 4,000 -900 Descending Southern California TRACON
12:24AM 33.7000 -117.8833 248° West 224 258 3,300 -1,200 Descending Southern California TRACON
12:25AM 33.7167 -117.9500 287° West 201 231 1,800 -900 Descending Southern California TRACON
12:26AM 33.7167 -118.0167 270° West 172 198 1,600 -120 Descending Southern California TRACON
12:27AM 33.7500 -118.0667 309° West 149 171 1,600 -240 Level Southern California TRACON
12:28AM 33.7667 -118.1000 301° West 138 159 1,100 -600 Descending Southern California TRACON
12:29AM 33.8000 -118.1333 320° Northwest 136 157 500 -720 Descending Southern California TRACON
12:30AM 33.8061 -118.1364 337° Northwest 140 161 200 -780 Descending Los Angeles Center
12:32AM 33.8167 -118.1500 292° West  Level FlightAware Approximate